createdAt,value
2023-04-06T00:01:39.289Z,100670
2023-04-06T00:07:29.190Z,100667
2023-04-06T00:13:20.106Z,100664
2023-04-06T00:19:10.446Z,100660
2023-04-06T00:25:00.445Z,100661
2023-04-06T00:30:51.259Z,100652
2023-04-06T00:36:43.151Z,100647
2023-04-06T00:42:32.171Z,100643
2023-04-06T00:48:22.251Z,100632
2023-04-06T00:54:11.555Z,100628
2023-04-06T01:00:01.772Z,100613
2023-04-06T01:05:52.828Z,100613
2023-04-06T01:11:42.499Z,100605
2023-04-06T01:17:33.847Z,100602
2023-04-06T01:23:24.775Z,100589
2023-04-06T01:29:17.025Z,100583
2023-04-06T01:35:08.597Z,100590
2023-04-06T01:40:59.452Z,100576
2023-04-06T01:46:51.138Z,100572
2023-04-06T01:52:43.811Z,100566
2023-04-06T01:58:35.353Z,100566
2023-04-06T02:04:27.189Z,100559
2023-04-06T02:10:16.828Z,100560
2023-04-06T02:16:09.549Z,100557
2023-04-06T02:22:01.421Z,100552
2023-04-06T02:27:53.150Z,100559
2023-04-06T02:33:44.369Z,100555
2023-04-06T02:39:36.035Z,100553
2023-04-06T02:45:28.419Z,100548
2023-04-06T02:51:21.730Z,100553
2023-04-06T02:57:13.041Z,100546
2023-04-06T03:03:06.829Z,100543
2023-04-06T03:08:59.710Z,100544
2023-04-06T03:14:51.049Z,100542
2023-04-06T03:20:42.685Z,100542
2023-04-06T03:26:34.858Z,100540
2023-04-06T03:32:27.508Z,100537
2023-04-06T03:38:18.416Z,100538
2023-04-06T03:44:10.025Z,100541
2023-04-06T03:50:02.751Z,100540
2023-04-06T03:55:53.624Z,100541
2023-04-06T04:01:48.586Z,100543
2023-04-06T04:07:41.917Z,100546
2023-04-06T04:13:33.730Z,100550
2023-04-06T04:19:27.467Z,100551
2023-04-06T04:25:19.321Z,100552
2023-04-06T04:31:10.593Z,100550
2023-04-06T04:37:01.730Z,100554
2023-04-06T04:42:54.376Z,100560
2023-04-06T04:48:46.198Z,100563
2023-04-06T04:54:36.865Z,100557
2023-04-06T05:00:28.623Z,100564
2023-04-06T05:06:24.572Z,100563
2023-04-06T05:12:16.216Z,100564
2023-04-06T05:18:10.235Z,100568
2023-04-06T05:24:03.332Z,100566
2023-04-06T05:29:56.734Z,100569
2023-04-06T05:35:49.908Z,100567
2023-04-06T05:41:43.439Z,100571
2023-04-06T05:47:35.562Z,100569
2023-04-06T05:53:27.170Z,100575
2023-04-06T05:59:19.868Z,100571
2023-04-06T06:05:12.103Z,100573
2023-04-06T06:11:04.248Z,100569
2023-04-06T06:16:55.202Z,100569
2023-04-06T06:22:46.838Z,100566
2023-04-06T06:28:39.612Z,100560
2023-04-06T06:34:31.338Z,100565
2023-04-06T06:40:21.994Z,100559
2023-04-06T06:46:13.620Z,100564
2023-04-06T06:52:08.577Z,100565
2023-04-06T06:57:57.530Z,100558
2023-04-06T07:03:53.363Z,100557
2023-04-06T07:09:45.201Z,100550
2023-04-06T07:15:38.520Z,100548
2023-04-06T07:21:33.331Z,100548
2023-04-06T07:27:25.771Z,100545
2023-04-06T07:33:18.332Z,100539
2023-04-06T07:39:12.547Z,100543
2023-04-06T07:45:02.923Z,100536
2023-04-06T07:50:55.456Z,100531
2023-04-06T07:56:46.373Z,100530
2023-04-06T08:02:41.653Z,100530
2023-04-06T08:08:33.240Z,100528
2023-04-06T08:14:26.353Z,100532
2023-04-06T08:20:23.723Z,100530
2023-04-06T08:26:16.349Z,100524
2023-04-06T08:33:16.904Z,100515
2023-04-06T08:39:08.339Z,100510
2023-04-06T08:45:00.543Z,100514
2023-04-06T08:50:55.387Z,100509
2023-04-06T08:56:48.274Z,100509
2023-04-06T09:02:39.939Z,100506
2023-04-06T09:08:33.838Z,100499
2023-04-06T09:14:26.072Z,100497
2023-04-06T09:20:20.269Z,100493
2023-04-06T09:26:13.451Z,100487
2023-04-06T09:32:05.275Z,100492
2023-04-06T09:37:59.697Z,100480
2023-04-06T09:43:54.138Z,100480
2023-04-06T09:50:01.652Z,100480
2023-04-06T09:55:54.607Z,100471
2023-04-06T10:01:46.678Z,100466
2023-04-06T10:08:05.184Z,100442
2023-04-06T10:14:10.288Z,100468
2023-04-06T10:20:02.954Z,100470
2023-04-06T10:25:53.224Z,100471
2023-04-06T10:31:47.673Z,100468
2023-04-06T10:37:39.774Z,100466
2023-04-06T10:43:35.641Z,100457
2023-04-06T10:49:30.188Z,100460
2023-04-06T10:55:23.794Z,100463
2023-04-06T11:07:31.701Z,100453
2023-04-06T11:13:25.096Z,100446
2023-04-06T11:19:16.013Z,100448
2023-04-06T11:25:07.380Z,100450
2023-04-06T11:31:09.719Z,100449
2023-04-06T11:37:01.719Z,100441
2023-04-06T11:42:51.450Z,100440
2023-04-06T11:48:43.645Z,100436
2023-04-06T11:54:33.483Z,100429
2023-04-06T12:00:26.723Z,100419
2023-04-06T12:06:31.256Z,100419
2023-04-06T12:12:24.724Z,100420
2023-04-06T12:18:19.319Z,100420
2023-04-06T12:24:14.029Z,100427
2023-04-06T12:30:10.047Z,100423
2023-04-06T12:36:03.270Z,100420
2023-04-06T12:41:57.801Z,100421
2023-04-06T12:47:56.745Z,100415
2023-04-06T12:53:50.849Z,100413
2023-04-06T12:59:45.071Z,100410
2023-04-06T13:05:38.979Z,100413
2023-04-06T13:11:33.939Z,100412
2023-04-06T13:17:29.146Z,100413
2023-04-06T13:23:42.577Z,100406
2023-04-06T13:29:38.348Z,100410
2023-04-06T13:35:35.442Z,100413
2023-04-06T13:41:28.081Z,100427
2023-04-06T13:47:29.771Z,100413
2023-04-06T13:53:22.536Z,100420
2023-04-06T13:59:20.740Z,100425
2023-04-06T14:05:30.865Z,100433
2023-04-06T14:11:33.765Z,100422
2023-04-06T14:24:03.700Z,100427
2023-04-06T14:29:59.807Z,100429
2023-04-06T14:35:50.886Z,100420
2023-04-06T14:41:43.000Z,100420
2023-04-06T14:47:41.861Z,100428
2023-04-06T14:53:38.464Z,100423
2023-04-06T14:59:45.371Z,100431
2023-04-06T15:06:04.490Z,100428
2023-04-06T15:18:13.160Z,100423
2023-04-06T15:24:11.250Z,100425
2023-04-06T15:30:01.878Z,100423
2023-04-06T15:35:54.259Z,100423
2023-04-06T15:41:44.572Z,100424
2023-04-06T15:47:34.016Z,100424
2023-04-06T15:53:24.058Z,100416
2023-04-06T15:59:17.419Z,100419
2023-04-06T16:05:06.975Z,100421
2023-04-06T16:10:57.284Z,100421
2023-04-06T16:16:50.448Z,100428
2023-04-06T16:22:43.416Z,100431
2023-04-06T16:28:34.681Z,100426
2023-04-06T16:34:25.455Z,100425
2023-04-06T16:40:16.721Z,100427
2023-04-06T16:46:08.805Z,100431
2023-04-06T16:52:00.936Z,100432
2023-04-06T16:57:51.080Z,100436
2023-04-06T17:03:42.990Z,100422
2023-04-06T17:09:37.504Z,100423
2023-04-06T17:15:29.341Z,100426
2023-04-06T17:21:21.405Z,100424
2023-04-06T17:27:14.125Z,100430
2023-04-06T17:33:05.535Z,100436
2023-04-06T17:38:58.442Z,100438
2023-04-06T17:44:53.533Z,100442
2023-04-06T17:50:45.178Z,100435
2023-04-06T17:56:36.749Z,100433
2023-04-06T18:02:30.194Z,100424
2023-04-06T18:08:21.840Z,100427
2023-04-06T18:14:15.207Z,100436
2023-04-06T18:20:08.025Z,100437
2023-04-06T18:26:03.430Z,100437
2023-04-06T18:31:57.407Z,100441
2023-04-06T18:37:50.605Z,100436
2023-04-06T18:43:43.036Z,100434
2023-04-06T18:49:37.033Z,100435
2023-04-06T18:55:29.108Z,100429
2023-04-06T19:01:21.933Z,100432
2023-04-06T19:07:14.729Z,100429
2023-04-06T19:13:12.582Z,100419
2023-04-06T19:19:04.600Z,100420
2023-04-06T19:24:57.582Z,100408
2023-04-06T19:30:52.116Z,100407
2023-04-06T19:36:45.041Z,100410
2023-04-06T19:43:46.652Z,100403
2023-04-06T19:49:37.420Z,100400
2023-04-06T19:55:27.848Z,100393
2023-04-06T20:01:21.328Z,100394
2023-04-06T20:07:12.826Z,100391
2023-04-06T20:13:04.209Z,100387
2023-04-06T20:18:56.250Z,100383
2023-04-06T20:24:46.809Z,100382
2023-04-06T20:30:39.687Z,100383
2023-04-06T20:36:31.294Z,100371
2023-04-06T20:42:23.053Z,100361
2023-04-06T20:48:13.866Z,100362
2023-04-06T20:54:06.217Z,100360
2023-04-06T20:59:57.752Z,100362
2023-04-06T21:05:49.273Z,100362
2023-04-06T21:11:40.381Z,100349
2023-04-06T21:17:32.426Z,100338
2023-04-06T21:23:23.438Z,100345
2023-04-06T21:29:14.888Z,100341
2023-04-06T21:35:06.757Z,100330
2023-04-06T21:41:00.076Z,100334
2023-04-06T21:46:52.798Z,100328
2023-04-06T21:52:43.736Z,100315
2023-04-06T21:58:35.363Z,100316
2023-04-06T22:04:27.934Z,100312
2023-04-06T22:10:19.903Z,100304
2023-04-06T22:16:13.590Z,100302
2023-04-06T22:22:03.980Z,100298
2023-04-06T22:27:56.164Z,100293
2023-04-06T22:33:47.805Z,100290
2023-04-06T22:39:38.849Z,100285
2023-04-06T22:45:32.196Z,100277
2023-04-06T22:51:25.021Z,100279
2023-04-06T22:57:17.239Z,100271
2023-04-06T23:03:08.706Z,100260
2023-04-06T23:09:01.556Z,100257
2023-04-06T23:14:54.388Z,100251
2023-04-06T23:20:45.910Z,100254
2023-04-06T23:26:37.423Z,100246
2023-04-06T23:32:29.735Z,100244
2023-04-06T23:38:22.769Z,100252
2023-04-06T23:44:14.116Z,100252
2023-04-06T23:50:06.255Z,100249
2023-04-06T23:55:58.189Z,100253
